createdAt,value
2023-01-20T00:01:26.250Z,51.30
2023-01-20T00:04:35.433Z,45.95
2023-01-20T00:07:44.609Z,47.92
2023-01-20T00:10:53.883Z,47.13
2023-01-20T00:14:04.620Z,44.85
2023-01-20T00:17:13.843Z,44.47
2023-01-20T00:20:23.136Z,44.75
2023-01-20T00:23:32.919Z,45.10
2023-01-20T00:26:42.240Z,47.50
2023-01-20T00:29:53.229Z,46.42
2023-01-20T00:33:02.509Z,47.97
2023-01-20T00:36:12.778Z,44.75
2023-01-20T00:39:22.145Z,46.50
2023-01-20T00:42:31.422Z,47.45
2023-01-20T00:45:42.510Z,47.70
2023-01-20T00:48:51.730Z,46.67
2023-01-20T00:52:00.902Z,48.50
2023-01-20T00:55:11.375Z,43.35
2023-01-20T00:58:20.865Z,45.55
2023-01-20T01:01:31.573Z,45.97
2023-01-20T01:04:40.825Z,44.60
2023-01-20T01:07:50.202Z,44.20
2023-01-20T01:10:59.600Z,43.87
2023-01-20T01:14:09.028Z,42.40
2023-01-20T01:17:19.769Z,42.83
2023-01-20T01:20:29.585Z,42.83
2023-01-20T01:23:38.859Z,42.38
2023-01-20T01:26:48.183Z,43.88
2023-01-20T01:29:57.594Z,42.50
2023-01-20T01:33:08.452Z,44.03
2023-01-20T01:36:18.759Z,42.75
2023-01-20T01:39:29.020Z,43.05
2023-01-20T01:42:38.390Z,42.30
2023-01-20T01:45:49.153Z,42.72
2023-01-20T01:49:00.449Z,41.95
2023-01-20T01:52:11.088Z,40.30
2023-01-20T01:55:21.079Z,38.08
2023-01-20T01:58:33.738Z,37.58
2023-01-20T02:01:45.606Z,39.13
2023-01-20T02:04:57.117Z,39.90
2023-01-20T02:08:07.116Z,38.42
2023-01-20T02:11:16.455Z,41.00
2023-01-20T02:14:27.662Z,37.75
2023-01-20T02:17:41.857Z,39.70
2023-01-20T02:21:35.669Z,40.72
2023-01-20T02:25:32.205Z,37.03
2023-01-20T02:29:08.948Z,38.90
2023-01-20T02:32:38.688Z,38.38
2023-01-20T02:35:51.370Z,36.78
2023-01-20T02:39:04.898Z,36.28
2023-01-20T02:42:20.136Z,36.13
2023-01-20T02:45:33.818Z,40.15
2023-01-20T02:48:48.151Z,37.80
2023-01-20T02:52:01.401Z,35.67
2023-01-20T02:55:13.015Z,37.47
2023-01-20T02:58:25.380Z,39.42
2023-01-20T03:01:37.138Z,40.80
2023-01-20T03:04:53.228Z,41.28
2023-01-20T03:08:05.719Z,40.05
2023-01-20T03:11:15.296Z,36.63
2023-01-20T03:14:24.958Z,39.50
2023-01-20T03:17:34.517Z,28.92
2023-01-20T03:20:45.246Z,35.73
2023-01-20T03:23:56.242Z,37.00
2023-01-20T03:27:05.755Z,38.72
2023-01-20T03:30:16.034Z,31.47
2023-01-20T03:33:25.655Z,41.13
2023-01-20T03:36:36.593Z,39.97
2023-01-20T03:39:45.807Z,42.20
2023-01-20T03:42:58.920Z,45.33
2023-01-20T03:46:14.117Z,42.70
2023-01-20T03:49:28.558Z,44.50
2023-01-20T03:52:47.756Z,41.22
2023-01-20T03:56:01.707Z,44.25
2023-01-20T03:59:13.166Z,45.92
2023-01-20T04:02:24.648Z,45.53
2023-01-20T04:05:34.208Z,43.75
2023-01-20T04:08:47.528Z,44.53
2023-01-20T04:11:57.003Z,40.35
2023-01-20T04:15:08.219Z,38.20
2023-01-20T04:18:19.585Z,40.10
2023-01-20T04:21:32.962Z,40.15
2023-01-20T04:24:47.111Z,39.60
2023-01-20T04:27:56.377Z,38.95
2023-01-20T04:31:05.930Z,40.33
2023-01-20T04:34:16.551Z,26.95
2023-01-20T04:37:26.268Z,38.90
2023-01-20T04:40:37.078Z,30.15
2023-01-20T04:43:46.580Z,39.83
2023-01-20T04:46:58.368Z,40.43
2023-01-20T04:50:12.252Z,44.92
2023-01-20T04:53:21.577Z,41.75
2023-01-20T04:56:32.244Z,40.70
2023-01-20T04:59:41.481Z,42.33
2023-01-20T05:02:50.756Z,43.15
2023-01-20T05:06:00.134Z,43.92
2023-01-20T05:09:10.882Z,46.75
2023-01-20T05:12:21.591Z,45.42
2023-01-20T05:15:30.963Z,46.63
2023-01-20T05:18:40.284Z,47.33
2023-01-20T05:21:49.575Z,34.50
2023-01-20T05:24:58.757Z,54.70
2023-01-20T05:28:09.688Z,55.00
2023-01-20T05:31:19.378Z,51.22
2023-01-20T05:34:28.778Z,39.17
2023-01-20T05:37:38.011Z,47.42
2023-01-20T05:40:47.587Z,51.88
2023-01-20T05:43:58.202Z,50.90
2023-01-20T05:47:07.511Z,49.50
2023-01-20T05:50:17.172Z,48.20
2023-01-20T05:53:26.608Z,47.20
2023-01-20T05:56:35.956Z,47.83
2023-01-20T05:59:47.857Z,50.40
2023-01-20T06:02:57.269Z,51.90
2023-01-20T06:06:09.156Z,40.00
2023-01-20T06:09:18.444Z,53.40
2023-01-20T06:12:27.777Z,50.17
2023-01-20T06:15:38.482Z,52.88
2023-01-20T06:18:47.792Z,51.80
2023-01-20T06:21:57.038Z,49.22
2023-01-20T06:25:07.007Z,49.95
2023-01-20T06:28:16.312Z,49.70
2023-01-20T06:31:28.700Z,49.33
2023-01-20T06:34:38.019Z,52.67
2023-01-20T06:37:47.317Z,50.30
2023-01-20T06:41:01.563Z,54.65
2023-01-20T06:44:10.802Z,51.95
2023-01-20T06:47:21.496Z,47.08
2023-01-20T06:50:30.774Z,50.55
2023-01-20T06:53:40.377Z,50.17
2023-01-20T06:56:49.666Z,44.27
2023-01-20T06:59:59.489Z,47.58
2023-01-20T07:03:11.902Z,46.65
2023-01-20T07:06:27.967Z,46.85
2023-01-20T07:09:37.410Z,46.55
2023-01-20T07:12:46.578Z,44.10
2023-01-20T07:15:55.885Z,43.35
2023-01-20T07:19:07.156Z,42.00
2023-01-20T07:22:16.381Z,44.08
2023-01-20T07:25:25.708Z,39.10
2023-01-20T07:28:35.310Z,46.13
2023-01-20T07:31:44.694Z,40.90
2023-01-20T07:34:55.614Z,40.58
2023-01-20T07:38:05.225Z,39.20
2023-01-20T07:41:16.496Z,39.53
2023-01-20T07:44:40.979Z,38.67
2023-01-20T07:47:50.353Z,39.63
2023-01-20T07:51:04.406Z,39.17
2023-01-20T07:54:13.791Z,38.72
2023-01-20T07:57:23.362Z,39.80
2023-01-20T08:00:32.721Z,41.57
2023-01-20T08:03:42.481Z,38.65
2023-01-20T08:06:53.237Z,28.50
2023-01-20T08:10:02.621Z,37.70
2023-01-20T08:13:12.668Z,38.35
2023-01-20T08:16:22.195Z,36.58
2023-01-20T08:19:31.662Z,36.75
2023-01-20T08:22:42.417Z,36.58
2023-01-20T08:25:52.144Z,37.65
2023-01-20T08:29:04.483Z,38.10
2023-01-20T08:32:13.797Z,37.95
2023-01-20T08:35:23.025Z,38.10
2023-01-20T08:38:33.740Z,36.63
2023-01-20T08:41:45.142Z,37.25
2023-01-20T08:44:54.743Z,36.08
2023-01-20T08:48:04.060Z,36.43
2023-01-20T08:51:16.057Z,35.13
2023-01-20T08:54:29.474Z,33.35
2023-01-20T08:57:38.879Z,33.53
2023-01-20T09:00:48.218Z,34.15
2023-01-20T09:04:05.777Z,33.13
2023-01-20T09:07:15.736Z,35.20
2023-01-20T09:10:26.453Z,24.60
2023-01-20T09:13:36.042Z,33.83
2023-01-20T09:16:45.343Z,33.00
2023-01-20T09:19:16.388Z,31.90
2023-01-20T09:21:45.653Z,31.30
2023-01-20T09:24:14.938Z,31.03
2023-01-20T09:26:45.510Z,29.48
2023-01-20T09:29:16.237Z,31.02
2023-01-20T09:31:46.376Z,29.38
2023-01-20T09:34:19.920Z,27.40
2023-01-20T09:36:52.491Z,28.85
2023-01-20T09:39:39.090Z,28.23
2023-01-20T09:42:42.652Z,25.98
2023-01-20T09:45:24.793Z,27.35
2023-01-20T09:47:57.594Z,26.75
2023-01-20T09:50:58.920Z,29.27
2023-01-20T09:53:46.420Z,28.08
2023-01-20T09:56:18.419Z,26.75
2023-01-20T09:58:53.403Z,25.05
2023-01-20T10:01:30.964Z,25.88
2023-01-20T10:04:04.975Z,26.13
2023-01-20T10:06:39.197Z,25.80
2023-01-20T10:09:12.942Z,25.30
2023-01-20T10:11:45.085Z,23.65
2023-01-20T10:14:20.169Z,23.55
2023-01-20T10:16:52.449Z,24.00
2023-01-20T10:19:27.377Z,22.70
2023-01-20T10:22:03.408Z,24.20
2023-01-20T10:24:35.164Z,22.77
2023-01-20T10:27:06.178Z,22.75
2023-01-20T10:29:39.725Z,22.80
2023-01-20T10:32:13.245Z,23.73
2023-01-20T10:34:46.801Z,24.95
2023-01-20T10:37:16.923Z,22.67
2023-01-20T10:39:50.754Z,23.70
2023-01-20T10:42:21.116Z,22.88
2023-01-20T10:44:53.772Z,21.45
2023-01-20T10:47:27.474Z,22.23
2023-01-20T10:50:38.895Z,21.25
2023-01-20T10:53:34.131Z,24.45
2023-01-20T10:56:17.241Z,24.40
2023-01-20T10:58:47.936Z,25.05
2023-01-20T11:01:22.072Z,25.58
2023-01-20T11:03:51.875Z,25.70
2023-01-20T11:06:23.066Z,28.05
2023-01-20T11:08:53.711Z,26.88
2023-01-20T11:11:24.749Z,27.27
2023-01-20T11:13:54.968Z,27.85
2023-01-20T11:16:29.028Z,28.85
2023-01-20T11:19:00.521Z,28.55
2023-01-20T11:21:31.080Z,26.63
2023-01-20T11:24:01.716Z,26.75
2023-01-20T11:26:34.096Z,25.48
2023-01-20T11:29:05.203Z,25.15
2023-01-20T11:31:43.066Z,26.63
2023-01-20T11:34:24.589Z,24.05
2023-01-20T11:37:27.608Z,23.60
2023-01-20T11:40:02.734Z,26.17
2023-01-20T11:42:37.864Z,25.98
2023-01-20T11:45:26.716Z,24.25
2023-01-20T11:48:06.787Z,26.17
2023-01-20T11:50:38.203Z,25.80
2023-01-20T11:53:19.098Z,24.98
2023-01-20T11:55:53.544Z,24.92
2023-01-20T11:58:24.648Z,25.50
2023-01-20T12:01:01.034Z,26.40
2023-01-20T12:03:56.885Z,25.50
2023-01-20T12:06:29.023Z,24.45
2023-01-20T12:09:03.439Z,23.75
2023-01-20T12:11:36.587Z,23.80
2023-01-20T12:14:23.613Z,25.63
2023-01-20T12:17:01.616Z,25.60
2023-01-20T12:19:39.533Z,26.92
2023-01-20T12:22:15.022Z,23.77
2023-01-20T12:25:13.623Z,23.75
2023-01-20T12:27:47.110Z,22.17
2023-01-20T12:30:33.792Z,23.45
2023-01-20T12:33:03.684Z,22.10
2023-01-20T12:35:43.826Z,24.17
2023-01-20T12:38:22.812Z,20.58
2023-01-20T12:40:53.738Z,21.92
2023-01-20T12:43:44.902Z,20.83
2023-01-20T12:46:33.036Z,21.50
2023-01-20T12:49:19.243Z,24.33
2023-01-20T12:52:01.702Z,26.27
2023-01-20T12:54:50.239Z,27.50
2023-01-20T12:57:30.521Z,26.70
2023-01-20T13:00:12.753Z,25.67
2023-01-20T13:02:58.288Z,24.02
2023-01-20T13:05:47.816Z,22.90
2023-01-20T13:08:22.913Z,22.08
2023-01-20T13:11:00.902Z,21.00
2023-01-20T13:13:56.269Z,18.23
2023-01-20T13:16:34.385Z,20.15
2023-01-20T13:19:09.938Z,16.70
2023-01-20T13:21:41.290Z,16.98
2023-01-20T13:24:20.108Z,16.60
2023-01-20T13:26:51.940Z,17.58
2023-01-20T13:29:44.388Z,16.02
2023-01-20T13:32:34.295Z,16.75
2023-01-20T13:37:39.954Z,20.05
2023-01-20T13:40:48.144Z,19.15
2023-01-20T13:44:01.059Z,23.13
2023-01-20T13:46:51.408Z,23.88
2023-01-20T13:51:56.422Z,22.23
2023-01-20T13:54:52.484Z,15.65
2023-01-20T13:57:45.146Z,22.02
2023-01-20T14:00:16.691Z,22.67
2023-01-20T14:02:47.971Z,20.70
2023-01-20T14:05:29.899Z,21.23
2023-01-20T14:07:59.339Z,20.23
2023-01-20T14:10:29.113Z,21.98
2023-01-20T14:12:58.189Z,21.77
2023-01-20T14:15:37.098Z,22.40
2023-01-20T14:18:14.947Z,21.98
2023-01-20T14:20:46.556Z,21.27
2023-01-20T14:23:30.590Z,19.85
2023-01-20T14:26:00.765Z,21.25
2023-01-20T14:28:29.928Z,18.15
2023-01-20T14:31:19.850Z,19.27
2023-01-20T14:33:57.389Z,18.70
2023-01-20T14:36:28.532Z,19.45
2023-01-20T14:38:59.382Z,19.08
2023-01-20T14:41:33.930Z,19.35
2023-01-20T14:44:03.941Z,16.80
2023-01-20T14:46:34.408Z,16.42
2023-01-20T14:49:06.089Z,14.65
2023-01-20T14:51:35.732Z,14.25
2023-01-20T14:54:36.123Z,12.55
2023-01-20T15:00:22.351Z,13.60
2023-01-20T15:03:09.571Z,14.52
2023-01-20T15:05:42.760Z,14.77
2023-01-20T15:08:25.285Z,15.00
2023-01-20T15:11:22.201Z,15.82
2023-01-20T15:14:11.076Z,17.25
2023-01-20T15:16:47.610Z,17.25
2023-01-20T15:19:34.679Z,16.38
2023-01-20T15:22:19.286Z,16.70
2023-01-20T15:24:49.672Z,17.45
2023-01-20T15:27:27.176Z,17.50
2023-01-20T15:30:05.741Z,17.42
2023-01-20T15:32:34.720Z,18.05
2023-01-20T15:35:04.134Z,18.27
2023-01-20T15:37:34.288Z,18.60
2023-01-20T15:40:03.424Z,19.92
2023-01-20T15:42:32.412Z,19.95
2023-01-20T15:45:01.537Z,21.33
2023-01-20T15:47:31.452Z,23.70
2023-01-20T15:50:00.458Z,23.38
2023-01-20T15:52:29.167Z,23.88
2023-01-20T15:54:59.742Z,22.40
2023-01-20T15:57:28.964Z,25.25
2023-01-20T15:59:58.221Z,24.20
2023-01-20T16:02:27.402Z,23.75
2023-01-20T16:04:56.103Z,25.73
2023-01-20T16:07:25.402Z,26.00
2023-01-20T16:09:54.542Z,24.27
2023-01-20T16:12:25.131Z,25.60
2023-01-20T16:14:54.361Z,26.92
2023-01-20T16:17:23.945Z,26.13
2023-01-20T16:19:52.684Z,26.58
2023-01-20T16:22:21.647Z,27.98
2023-01-20T16:24:51.394Z,25.08
2023-01-20T16:27:21.665Z,24.27
2023-01-20T16:29:52.533Z,24.83
2023-01-20T16:32:22.626Z,23.27
2023-01-20T16:34:51.368Z,23.50
2023-01-20T16:37:20.388Z,19.58
2023-01-20T16:39:49.439Z,18.88
2023-01-20T16:42:18.695Z,20.27
2023-01-20T16:44:47.753Z,20.63
2023-01-20T16:47:18.288Z,18.20
2023-01-20T16:49:46.953Z,16.13
2023-01-20T16:52:16.044Z,15.65
2023-01-20T16:54:45.117Z,14.07
2023-01-20T16:57:14.228Z,13.85
2023-01-20T16:59:43.504Z,14.07
2023-01-20T17:02:12.647Z,15.52
2023-01-20T17:04:42.878Z,15.38
2023-01-20T17:07:11.975Z,16.17
2023-01-20T17:09:42.159Z,16.95
2023-01-20T17:12:11.324Z,17.90
2023-01-20T17:14:40.452Z,17.40
2023-01-20T17:17:09.534Z,18.77
2023-01-20T17:19:38.369Z,17.90
2023-01-20T17:22:08.963Z,18.80
2023-01-20T17:24:39.360Z,18.45
2023-01-20T17:27:09.189Z,19.52
2023-01-20T17:29:38.814Z,18.13
2023-01-20T17:32:07.938Z,18.27
2023-01-20T17:34:36.511Z,16.42
2023-01-20T17:37:05.541Z,17.92
2023-01-20T17:39:37.392Z,17.15
2023-01-20T17:42:06.648Z,16.10
2023-01-20T17:44:37.726Z,15.65
2023-01-20T17:47:07.005Z,17.13
2023-01-20T17:49:35.774Z,17.33
2023-01-20T17:52:05.031Z,16.75
2023-01-20T17:54:35.599Z,15.18
2023-01-20T17:57:04.789Z,16.67
2023-01-20T17:59:33.815Z,15.82
2023-01-20T18:02:02.970Z,16.08
2023-01-20T18:04:32.231Z,15.75
2023-01-20T18:07:01.418Z,15.80
2023-01-20T18:09:30.627Z,15.20
2023-01-20T18:12:01.350Z,14.55
2023-01-20T18:14:30.586Z,14.02
2023-01-20T18:16:59.761Z,13.15
2023-01-20T18:19:28.562Z,12.48
2023-01-20T18:21:57.556Z,14.45
2023-01-20T18:24:26.709Z,12.63
2023-01-20T18:26:57.793Z,13.50
2023-01-20T18:29:30.243Z,14.32
2023-01-20T18:31:59.326Z,12.95
2023-01-20T18:34:28.395Z,15.23
2023-01-20T18:36:57.546Z,14.75
2023-01-20T18:39:27.368Z,13.27
2023-01-20T18:41:56.538Z,16.08
2023-01-20T18:44:25.655Z,15.20
2023-01-20T18:46:55.946Z,14.90
2023-01-20T18:49:24.977Z,15.32
2023-01-20T18:51:54.107Z,16.70
2023-01-20T18:54:25.022Z,16.38
2023-01-20T18:56:54.171Z,16.92
2023-01-20T18:59:23.308Z,16.92
2023-01-20T19:01:52.176Z,15.82
2023-01-20T19:04:22.612Z,15.40
2023-01-20T19:06:51.788Z,16.65
2023-01-20T19:09:20.777Z,15.38
2023-01-20T19:11:49.947Z,16.55
2023-01-20T19:14:19.066Z,14.65
2023-01-20T19:16:49.451Z,13.80
2023-01-20T19:19:19.308Z,13.50
2023-01-20T19:21:51.910Z,13.88
2023-01-20T19:24:22.567Z,12.50
2023-01-20T19:26:51.696Z,13.77
2023-01-20T19:29:20.837Z,12.45
2023-01-20T19:31:52.075Z,13.18
2023-01-20T19:34:21.280Z,12.73
2023-01-20T19:36:51.726Z,11.60
2023-01-20T19:39:20.816Z,12.27
2023-01-20T19:41:49.819Z,12.25
2023-01-20T19:44:18.838Z,12.32
2023-01-20T19:46:47.561Z,12.40
2023-01-20T19:49:16.689Z,13.23
2023-01-20T19:51:46.144Z,12.52
2023-01-20T19:54:16.918Z,12.85
2023-01-20T19:56:46.255Z,11.93
2023-01-20T19:59:15.245Z,11.38
2023-01-20T20:01:43.906Z,10.90
2023-01-20T20:04:14.138Z,9.90
2023-01-20T20:09:20.251Z,10.35
2023-01-20T20:11:50.295Z,10.45
2023-01-20T20:14:21.286Z,10.05
2023-01-20T20:16:50.541Z,10.57
2023-01-20T20:19:20.613Z,9.95
2023-01-20T20:21:49.621Z,9.75
2023-01-20T20:24:20.294Z,10.10
2023-01-20T20:26:49.557Z,9.80
2023-01-20T20:29:19.956Z,9.77
2023-01-20T20:31:48.961Z,10.73
2023-01-20T20:34:20.274Z,10.68
2023-01-20T20:36:49.537Z,12.38
2023-01-20T20:39:20.484Z,12.07
2023-01-20T20:41:49.690Z,13.30
2023-01-20T20:44:18.791Z,11.82
2023-01-20T20:46:48.662Z,12.43
2023-01-20T20:51:46.681Z,12.45
2023-01-20T20:54:17.198Z,12.23
2023-01-20T20:56:48.336Z,14.20
2023-01-20T20:59:19.600Z,14.20
2023-01-20T21:01:48.388Z,15.77
2023-01-20T21:04:17.740Z,15.00
2023-01-20T21:06:46.803Z,15.88
2023-01-20T21:09:15.732Z,16.45
2023-01-20T21:11:44.759Z,14.88
2023-01-20T21:14:15.493Z,13.40
2023-01-20T21:16:44.875Z,13.15
2023-01-20T21:19:13.955Z,12.65
2023-01-20T21:21:43.083Z,11.82
2023-01-20T21:24:13.975Z,11.68
2023-01-20T21:26:43.225Z,11.27
2023-01-20T21:29:12.648Z,10.30
2023-01-20T21:31:42.874Z,10.73
2023-01-20T21:34:14.768Z,10.15
2023-01-20T21:36:44.120Z,9.85
2023-01-20T21:39:16.956Z,9.43
2023-01-20T21:41:46.102Z,9.48
2023-01-20T21:44:32.483Z,8.55
2023-01-20T21:47:04.147Z,9.38
2023-01-20T21:49:50.516Z,9.82
2023-01-20T21:52:38.637Z,8.25
2023-01-20T21:55:09.082Z,9.52
2023-01-20T21:57:38.778Z,10.00
2023-01-20T22:00:09.885Z,10.35
2023-01-20T22:02:45.001Z,10.00
2023-01-20T22:05:14.470Z,10.05
2023-01-20T22:07:43.080Z,9.98
2023-01-20T22:10:13.053Z,9.90
2023-01-20T22:12:42.040Z,7.72
2023-01-20T22:15:11.782Z,8.18
2023-01-20T22:17:41.540Z,9.40
2023-01-20T22:20:13.120Z,8.57
2023-01-20T22:22:41.828Z,9.30
2023-01-20T22:25:11.321Z,8.63
2023-01-20T22:27:40.468Z,8.85
2023-01-20T22:30:10.732Z,8.23
2023-01-20T22:35:08.975Z,7.65
2023-01-20T22:37:39.029Z,6.93
2023-01-20T22:40:08.703Z,8.75
2023-01-20T22:42:37.710Z,9.82
2023-01-20T22:45:07.757Z,10.60
2023-01-20T22:47:36.715Z,10.15
2023-01-20T22:50:07.950Z,11.48
2023-01-20T22:52:36.541Z,10.63
2023-01-20T22:55:07.900Z,11.93
2023-01-20T22:57:36.903Z,12.18
2023-01-20T23:00:08.050Z,11.77
2023-01-20T23:02:38.854Z,12.90
2023-01-20T23:05:08.258Z,12.65
2023-01-20T23:07:38.637Z,11.40
2023-01-20T23:10:30.840Z,13.40
2023-01-20T23:12:59.917Z,12.45
2023-01-20T23:15:28.870Z,14.27
2023-01-20T23:17:57.938Z,12.77
2023-01-20T23:20:28.322Z,13.60
2023-01-20T23:22:57.121Z,15.50
2023-01-20T23:25:27.739Z,15.20
2023-01-20T23:27:56.867Z,14.93
2023-01-20T23:30:26.714Z,14.80
2023-01-20T23:32:55.813Z,14.55
2023-01-20T23:35:24.891Z,15.05
2023-01-20T23:37:53.625Z,15.90
2023-01-20T23:40:23.124Z,11.98
2023-01-20T23:42:53.797Z,16.15
2023-01-20T23:45:22.816Z,16.02
2023-01-20T23:47:51.805Z,15.15
2023-01-20T23:50:20.985Z,16.27
2023-01-20T23:52:49.596Z,16.25
2023-01-20T23:55:18.815Z,15.77
2023-01-20T23:57:47.904Z,15.77
